Huvudsida
METAR-TAF:

METAR-TAF

Flygplatser :

Lima, Peru

latitud: 12-00S, longitud: 077-07W, höjd: 12 m

Aktuellt väderrapport

Denna rapport gjordes för 26 minuter sedan, klockan 21:00 UTC
Vind 12 kt från syd
Temperatur 18°C
Fuktighet 77%
Tryck 1015 hPa
Sikt 10 km eller mer
Brutna moln på en höjd av 1600 ft

METAR: SPJC 162100Z 17012KT 9999 BKN016 18/14 Q1015 NOSIG RMK PP000

Tid: 16:26 (21:26 UTC)

Väderprognos

Denna rapport gjordes för 4 timmar och 26 minuter sedan, klockan 17:00 UTC
Prognos gäller från 16 kl. 18 UTC till 17 kl. 18 UTC
Vind 10 kt från syd
Sikt 10 km eller mer
Mulet på en höjd av 1700 ft
Från 17 kl. 0500 UTC
Vind 5 kt från syd
Sikt: 8000 m
Mulet på en höjd av 1500 ft
Temporärt
från 17 kl. 09 UTC till 17 kl. 12 UTC
Sikt: 4000 m
fuktdis

TAF: SPJC 161700Z 1618/1718 17010KT 9999 OVC017 TX19/1618Z TN15/1711Z FM170500 18005KT 8000 OVC015 TEMPO 1709/1712 4000 BR

Aktuella väderrapporter och prognoser från 4000 flygplatser (METAR- och TAF-rapporter).

De tillgängliga stationerna syns som gula och röda prickar på kartan.

För musen över prickarna för att se namnen på stationerna.

Klicka sedan för att få väderrapporter och prognoser.

För att ändra kartan: Klicka på de gröna knapparna med ett svart kors på för att zooma in; den gröna knappen med ett streck på för att zooma ut; eller på de gröna pilarna för angränsande kartor.


METAR-TAF: